Strona główna
METAR-TAF:

METAR-TAF

Lotnisko :

Le Touquet, Francja

Szerokość geograficzna: 50-30-53N, Długość geograficzna: 001-37-39E, wysokość: 6 m

Aktualna obserwacja pogody

Raport powstał 19 minut temu, godzina 10:30 UTC
Wiatr 5 kt od wschód, zmienny między północny wschód i wschodnio-południowy wschód
Temperatura 9°C
Wilgotność 93%
Ciśnienie 1018 hPa
Widzialność: 5000 m
Zachmurzenie całkowite na wysokości 600 ft
zamglenie

METAR: LFAT 271030Z AUTO 10005KT 050V120 5000 BR OVC006 09/08 Q1018 NOSIG

czas: 11:49 (10:49 UTC)

Prognoza

Raport powstał 2 godziny i 49 minut temu, godzina 08:00 UTC
Prognoza ważna od 27 godzina 09 UTC do 27 godzina 18 UTC
Wiatr 7 kt od wschód
Widzialność: 6000 m
Zachmurzenie całkowite na wysokości 600 ft
Przejściowo
od 27 godzina 09 UTC do 27 godzina 10 UTC
Widzialność: 4000 m
Zachmurzenie całkowite na wysokości 400 ft
zamglenie
Stopniowe zmiany
od 27 godzina 13 UTC do 27 godzina 15 UTC

TAF: LFAT 270800Z 2709/2718 08007KT 6000 OVC006 TEMPO 2709/2710 4000 BR OVC004 BECMG 2713/2715 NSC

Obserwacja i prognoza pogody dla ponad 4000 lotnisk (raport METAR i TAF).

Dostępne stacje oznaczono żółtymi i czerwonymi punktami na mapie.

Najedź kursorem aby zobaczyć nazwę stacji.

Kliknij aby zobaczyć obserwacje i prognozy pogody.

Aby zmienić mapę: kliknij na zielony przycisk z czarnym krzyżykiem, aby powiększyć; na zielony przycisk z myślnikiem, aby pomniejszyć; na zielone strzałki, aby przejść do map sąsiednich.


METAR-TAF: